▣
Archiv
Tageswerte
Alle gespeicherten Messwerte deiner Wetterstation.
Ausgewählter Tag21.12.2023
Messpunkte288
Max Temperatur8,4 °C
Min Temperatur3,4 °C
Ø Temperatur5,5 °C
Regen15,8 mm
Stärkste Böe33,5 km/h
Messwerte vom 21.12.2023
288 gespeicherte Messwerte
| Zeit | Temperatur | Feuchte | Druck | Wind | Böe | Richtung | Regen | UV | Helligkeit |
|---|---|---|---|---|---|---|---|---|---|
| 23:59 | 3,7 °C | 83 % | 983,1 hPa | 7,9 km/h | 15,8 km/h | 312° | 15,8 mm | – | – |
| 23:54 | 3,7 °C | 83 % | 983,1 hPa | 10,0 km/h | 19,0 km/h | 303° | 15,8 mm | – | – |
| 23:49 | 3,7 °C | 83 % | 983,1 hPa | 8,6 km/h | 13,7 km/h | 286° | 15,8 mm | – | – |
| 23:44 | 3,7 °C | 83 % | 982,1 hPa | 7,4 km/h | 15,8 km/h | 292° | 15,8 mm | – | – |
| 23:39 | 3,8 °C | 83 % | 982,1 hPa | 7,6 km/h | 17,2 km/h | 305° | 15,8 mm | – | – |
| 23:34 | 3,7 °C | 83 % | 982,1 hPa | 8,3 km/h | 16,4 km/h | 283° | 15,8 mm | – | – |
| 23:29 | 3,7 °C | 83 % | 982,1 hPa | 9,9 km/h | 17,5 km/h | 285° | 15,8 mm | – | – |
| 23:24 | 3,7 °C | 83 % | 982,1 hPa | 8,3 km/h | 20,1 km/h | 268° | 15,8 mm | – | – |
| 23:19 | 3,7 °C | 84 % | 982,1 hPa | 8,0 km/h | 15,0 km/h | 318° | 15,8 mm | – | – |
| 23:14 | 3,6 °C | 84 % | 982,1 hPa | 8,8 km/h | 18,3 km/h | 288° | 15,8 mm | – | – |
| 23:09 | 3,5 °C | 84 % | 982,1 hPa | 9,3 km/h | 17,9 km/h | 306° | 15,8 mm | – | – |
| 23:04 | 3,5 °C | 84 % | 982,1 hPa | 11,2 km/h | 18,7 km/h | 281° | 15,8 mm | – | – |
| 22:59 | 3,5 °C | 84 % | 982,1 hPa | 10,3 km/h | 18,7 km/h | 274° | 15,8 mm | – | – |
| 22:54 | 3,5 °C | 85 % | 982,1 hPa | 10,5 km/h | 17,9 km/h | 268° | 15,8 mm | – | – |
| 22:49 | 3,5 °C | 85 % | 982,1 hPa | 9,6 km/h | 17,5 km/h | 299° | 15,8 mm | – | – |
| 22:44 | 3,5 °C | 85 % | 982,1 hPa | 8,8 km/h | 19,0 km/h | 279° | 15,8 mm | – | – |
| 22:39 | 3,5 °C | 86 % | 982,1 hPa | 7,5 km/h | 16,4 km/h | 311° | 15,8 mm | – | – |
| 22:34 | 3,5 °C | 85 % | 982,1 hPa | 8,9 km/h | 18,3 km/h | 263° | 15,8 mm | – | – |
| 22:29 | 3,5 °C | 86 % | 982,1 hPa | 7,9 km/h | 16,4 km/h | 274° | 15,8 mm | – | – |
| 22:24 | 3,5 °C | 85 % | 982,1 hPa | 6,5 km/h | 12,2 km/h | 276° | 15,8 mm | – | – |
| 22:19 | 3,5 °C | 85 % | 982,1 hPa | 7,6 km/h | 13,7 km/h | 280° | 15,8 mm | – | – |
| 22:14 | 3,5 °C | 85 % | 981,0 hPa | 8,9 km/h | 16,4 km/h | 246° | 15,8 mm | – | – |
| 22:09 | 3,4 °C | 85 % | 981,0 hPa | 7,6 km/h | 16,4 km/h | 282° | 15,8 mm | – | – |
| 22:04 | 3,5 °C | 85 % | 981,0 hPa | 8,9 km/h | 17,2 km/h | 280° | 15,8 mm | – | – |
| 21:59 | 3,5 °C | 85 % | 981,0 hPa | 7,1 km/h | 10,8 km/h | 292° | 15,8 mm | – | – |
| 21:54 | 3,6 °C | 85 % | 981,0 hPa | 6,4 km/h | 14,3 km/h | 272° | 15,8 mm | – | – |
| 21:49 | 3,7 °C | 85 % | 981,0 hPa | 8,4 km/h | 17,2 km/h | 280° | 15,8 mm | – | – |
| 21:44 | 3,8 °C | 85 % | 982,1 hPa | 8,4 km/h | 17,2 km/h | 299° | 15,8 mm | – | – |
| 21:39 | 3,9 °C | 85 % | 982,1 hPa | 8,5 km/h | 19,0 km/h | 311° | 15,8 mm | – | – |
| 21:34 | 4,0 °C | 84 % | 982,1 hPa | 8,0 km/h | 17,2 km/h | 270° | 15,8 mm | – | – |
| 21:29 | 4,1 °C | 84 % | 981,0 hPa | 8,8 km/h | 18,3 km/h | 286° | 15,8 mm | – | – |
| 21:24 | 4,2 °C | 84 % | 981,0 hPa | 9,3 km/h | 18,3 km/h | 280° | 15,8 mm | – | – |
| 21:19 | 4,3 °C | 83 % | 981,0 hPa | 10,2 km/h | 17,9 km/h | 251° | 15,8 mm | – | – |
| 21:14 | 4,4 °C | 83 % | 981,0 hPa | 10,9 km/h | 25,1 km/h | 295° | 15,8 mm | – | – |
| 21:09 | 4,4 °C | 83 % | 981,0 hPa | 9,4 km/h | 17,5 km/h | 323° | 15,8 mm | – | – |
| 21:04 | 4,4 °C | 84 % | 981,0 hPa | 9,3 km/h | 16,9 km/h | 298° | 15,8 mm | – | – |
| 20:59 | 4,4 °C | 84 % | 980,0 hPa | 10,5 km/h | 20,4 km/h | 298° | 15,8 mm | – | – |
| 20:54 | 4,3 °C | 86 % | 980,0 hPa | 9,0 km/h | 18,7 km/h | 309° | 15,8 mm | – | – |
| 20:49 | 4,3 °C | 87 % | 980,0 hPa | 8,7 km/h | 15,8 km/h | 305° | 15,8 mm | – | – |
| 20:44 | 4,3 °C | 88 % | 980,0 hPa | 5,8 km/h | 10,3 km/h | 331° | 15,8 mm | – | – |
| 20:39 | 4,2 °C | 89 % | 980,0 hPa | 7,5 km/h | 21,1 km/h | 317° | 15,8 mm | – | – |
| 20:34 | 4,1 °C | 90 % | 980,0 hPa | 6,8 km/h | 12,6 km/h | 283° | 15,8 mm | – | – |
| 20:29 | 4,0 °C | 90 % | 980,0 hPa | 6,3 km/h | 16,4 km/h | 307° | 15,8 mm | – | – |
| 20:24 | 4,0 °C | 91 % | 980,0 hPa | 7,0 km/h | 12,6 km/h | 295° | 15,8 mm | – | – |
| 20:19 | 4,0 °C | 91 % | 980,0 hPa | 5,6 km/h | 10,8 km/h | 282° | 15,8 mm | – | – |
| 20:14 | 3,9 °C | 91 % | 980,0 hPa | 6,6 km/h | 12,2 km/h | 296° | 15,8 mm | – | – |
| 20:09 | 3,9 °C | 91 % | 980,0 hPa | 5,7 km/h | 12,2 km/h | 271° | 15,8 mm | – | – |
| 20:04 | 3,9 °C | 91 % | 980,0 hPa | 7,0 km/h | 16,4 km/h | 270° | 15,8 mm | – | – |
| 19:59 | 3,9 °C | 91 % | 980,0 hPa | 6,8 km/h | 15,0 km/h | 292° | 15,8 mm | – | – |
| 19:54 | 3,9 °C | 91 % | 980,0 hPa | 6,6 km/h | 15,0 km/h | 307° | 15,8 mm | – | – |
| 19:49 | 3,9 °C | 91 % | 980,0 hPa | 5,6 km/h | 10,3 km/h | 296° | 15,8 mm | – | – |
| 19:44 | 3,9 °C | 91 % | 980,0 hPa | 6,5 km/h | 12,2 km/h | 276° | 15,8 mm | – | – |
| 19:39 | 3,9 °C | 91 % | 980,0 hPa | 6,8 km/h | 10,8 km/h | 295° | 15,8 mm | – | – |
| 19:34 | 3,9 °C | 92 % | 980,0 hPa | 5,8 km/h | 12,2 km/h | 270° | 15,8 mm | – | – |
| 19:29 | 3,8 °C | 92 % | 980,0 hPa | 7,6 km/h | 12,9 km/h | 285° | 15,8 mm | – | – |
| 19:24 | 3,8 °C | 92 % | 980,0 hPa | 5,8 km/h | 10,3 km/h | 300° | 15,8 mm | – | – |
| 19:19 | 3,7 °C | 92 % | 980,0 hPa | 4,8 km/h | 10,8 km/h | 274° | 15,8 mm | – | – |
| 19:14 | 3,7 °C | 92 % | 980,0 hPa | 5,6 km/h | 15,0 km/h | 300° | 15,8 mm | – | – |
| 19:09 | 3,8 °C | 92 % | 980,0 hPa | 6,5 km/h | 15,8 km/h | 304° | 15,8 mm | – | – |
| 19:04 | 3,8 °C | 92 % | 980,0 hPa | 6,3 km/h | 14,3 km/h | 307° | 15,8 mm | – | – |
| 18:59 | 4,0 °C | 92 % | 980,0 hPa | 8,6 km/h | 18,7 km/h | 295° | 15,8 mm | – | – |
| 18:54 | 4,1 °C | 93 % | 980,0 hPa | 7,6 km/h | 15,8 km/h | 289° | 15,5 mm | – | – |
| 18:49 | 4,3 °C | 92 % | 980,0 hPa | 9,1 km/h | 16,4 km/h | 324° | 15,5 mm | – | – |
| 18:44 | 4,4 °C | 93 % | 980,0 hPa | 7,7 km/h | 17,9 km/h | 323° | 15,0 mm | – | – |
| 18:39 | 4,4 °C | 91 % | 980,0 hPa | 11,8 km/h | 20,1 km/h | 296° | 15,0 mm | – | – |
| 18:34 | 4,6 °C | 92 % | 980,0 hPa | 11,2 km/h | 28,3 km/h | 325° | 15,0 mm | – | – |
| 18:29 | 4,7 °C | 91 % | 980,0 hPa | 14,0 km/h | 24,5 km/h | 331° | 15,0 mm | – | – |
| 18:24 | 4,9 °C | 90 % | 980,0 hPa | 15,0 km/h | 28,3 km/h | 333° | 14,7 mm | – | – |
| 18:19 | 5,0 °C | 91 % | 980,0 hPa | 16,0 km/h | 33,5 km/h | 345° | 14,7 mm | – | – |
| 18:14 | 5,1 °C | 91 % | 979,0 hPa | 12,6 km/h | 25,1 km/h | 327° | 14,2 mm | – | – |
| 18:09 | 5,3 °C | 91 % | 979,0 hPa | 10,8 km/h | 24,8 km/h | 326° | 14,0 mm | – | – |
| 18:04 | 5,5 °C | 91 % | 979,0 hPa | 12,0 km/h | 27,7 km/h | 336° | 14,0 mm | – | – |
| 17:59 | 5,6 °C | 91 % | 979,0 hPa | 12,2 km/h | 21,1 km/h | 324° | 14,0 mm | – | – |
| 17:54 | 5,9 °C | 91 % | 979,0 hPa | 12,0 km/h | 20,8 km/h | 329° | 14,0 mm | – | – |
| 17:49 | 6,1 °C | 91 % | 979,0 hPa | 13,2 km/h | 27,4 km/h | 308° | 14,0 mm | – | – |
| 17:44 | 6,4 °C | 91 % | 978,0 hPa | 14,1 km/h | 28,0 km/h | 281° | 13,5 mm | – | – |
| 17:39 | 6,6 °C | 91 % | 978,0 hPa | 11,5 km/h | 20,1 km/h | 318° | 13,0 mm | – | – |
| 17:34 | 6,9 °C | 90 % | 978,0 hPa | 12,8 km/h | 31,5 km/h | 299° | 12,7 mm | – | – |
| 17:29 | 7,3 °C | 89 % | 978,0 hPa | 12,6 km/h | 23,7 km/h | 302° | 12,7 mm | – | – |
| 17:24 | 7,6 °C | 88 % | 978,0 hPa | 15,1 km/h | 28,3 km/h | 294° | 12,2 mm | – | – |
| 17:19 | 7,8 °C | 92 % | 978,0 hPa | 11,3 km/h | 27,4 km/h | 289° | 11,9 mm | – | – |
| 17:14 | 7,8 °C | 91 % | 978,0 hPa | 10,0 km/h | 17,9 km/h | 283° | 10,2 mm | – | – |
| 17:09 | 7,8 °C | 91 % | 978,0 hPa | 7,6 km/h | 18,7 km/h | 282° | 9,4 mm | – | – |
| 17:04 | 7,8 °C | 90 % | 978,0 hPa | 8,8 km/h | 16,9 km/h | 239° | 9,1 mm | – | – |
| 16:59 | 7,8 °C | 90 % | 978,0 hPa | 9,0 km/h | 16,4 km/h | 248° | 8,6 mm | – | – |
| 16:54 | 8,0 °C | 90 % | 978,0 hPa | 7,6 km/h | 11,1 km/h | 279° | 8,6 mm | – | – |
| 16:49 | 8,2 °C | 89 % | 978,0 hPa | 10,4 km/h | 19,0 km/h | 261° | 8,6 mm | – | – |
| 16:44 | 8,4 °C | 87 % | 978,0 hPa | 10,8 km/h | 21,9 km/h | 270° | 8,4 mm | – | – |
| 16:39 | 8,4 °C | 84 % | 978,0 hPa | 10,5 km/h | 21,1 km/h | 24° | 7,9 mm | – | – |
| 16:34 | 8,3 °C | 84 % | 978,0 hPa | 10,0 km/h | 18,3 km/h | 282° | 7,9 mm | – | – |
| 16:29 | 8,1 °C | 84 % | 978,0 hPa | 10,1 km/h | 17,2 km/h | 271° | 7,9 mm | – | – |
| 16:24 | 8,0 °C | 84 % | 978,0 hPa | 8,9 km/h | 25,9 km/h | 234° | 7,9 mm | – | – |
| 16:19 | 7,9 °C | 85 % | 978,0 hPa | 9,6 km/h | 18,3 km/h | 232° | 7,9 mm | – | – |
| 16:14 | 7,8 °C | 86 % | 978,0 hPa | 9,1 km/h | 20,1 km/h | 235° | 7,9 mm | – | – |
| 16:09 | 7,8 °C | 86 % | 978,0 hPa | 9,1 km/h | 21,9 km/h | 217° | 7,9 mm | – | – |
| 16:04 | 7,8 °C | 86 % | 978,0 hPa | 8,2 km/h | 12,2 km/h | 266° | 7,9 mm | – | – |
| 15:59 | 7,7 °C | 86 % | 979,0 hPa | 10,1 km/h | 21,1 km/h | 257° | 7,9 mm | – | – |
| 15:54 | 7,7 °C | 86 % | 979,0 hPa | 8,6 km/h | 17,9 km/h | 224° | 7,9 mm | – | – |
| 15:49 | 7,7 °C | 86 % | 979,0 hPa | 9,9 km/h | 17,5 km/h | 232° | 7,9 mm | – | – |
| 15:44 | 7,6 °C | 86 % | 979,0 hPa | 10,2 km/h | 19,8 km/h | 233° | 7,9 mm | – | – |
| 15:39 | 7,5 °C | 86 % | 979,0 hPa | 10,8 km/h | 19,0 km/h | 249° | 7,9 mm | – | – |
| 15:34 | 7,4 °C | 87 % | 979,0 hPa | 10,7 km/h | 23,3 km/h | 213° | 7,9 mm | – | – |
| 15:29 | 7,4 °C | 87 % | 979,0 hPa | 8,8 km/h | 20,4 km/h | 231° | 7,9 mm | – | – |
| 15:24 | 7,3 °C | 88 % | 979,0 hPa | 10,6 km/h | 20,1 km/h | 228° | 7,9 mm | – | – |
| 15:19 | 7,2 °C | 88 % | 979,0 hPa | 9,6 km/h | 20,4 km/h | 86° | 7,9 mm | – | – |
| 15:14 | 7,2 °C | 89 % | 980,0 hPa | 8,9 km/h | 17,9 km/h | 262° | 7,9 mm | – | – |
| 15:09 | 7,2 °C | 89 % | 980,0 hPa | 9,3 km/h | 17,2 km/h | 227° | 7,9 mm | – | – |
| 15:04 | 7,2 °C | 89 % | 980,0 hPa | 8,4 km/h | 16,4 km/h | 198° | 7,4 mm | – | – |
| 14:59 | 7,3 °C | 89 % | 979,0 hPa | 10,0 km/h | 19,0 km/h | 274° | 7,4 mm | – | – |
| 14:54 | 7,3 °C | 88 % | 979,0 hPa | 6,9 km/h | 14,3 km/h | 253° | 7,4 mm | – | – |
| 14:49 | 7,4 °C | 88 % | 979,0 hPa | 7,8 km/h | 19,3 km/h | 234° | 7,4 mm | – | – |
| 14:44 | 7,3 °C | 87 % | 980,0 hPa | 10,3 km/h | 19,0 km/h | 257° | 7,4 mm | – | – |
| 14:39 | 7,2 °C | 87 % | 980,0 hPa | 12,0 km/h | 20,8 km/h | 242° | 7,4 mm | – | – |
| 14:34 | 7,1 °C | 87 % | 980,0 hPa | 9,8 km/h | 22,5 km/h | 236° | 7,4 mm | – | – |
| 14:29 | 7,0 °C | 88 % | 980,0 hPa | 11,4 km/h | 23,3 km/h | 235° | 7,4 mm | – | – |
| 14:24 | 7,0 °C | 89 % | 980,0 hPa | 9,7 km/h | 19,0 km/h | 241° | 7,4 mm | – | – |
| 14:19 | 6,9 °C | 89 % | 980,0 hPa | 10,0 km/h | 22,5 km/h | 224° | 7,4 mm | – | – |
| 14:14 | 6,9 °C | 90 % | 981,0 hPa | 7,9 km/h | 17,5 km/h | 245° | 7,4 mm | – | – |
| 14:09 | 6,9 °C | 90 % | 981,0 hPa | 9,4 km/h | 18,7 km/h | 256° | 7,4 mm | – | – |
| 14:04 | 6,9 °C | 90 % | 981,0 hPa | 9,3 km/h | 17,5 km/h | 249° | 7,4 mm | – | – |
| 13:59 | 7,0 °C | 90 % | 981,0 hPa | 9,3 km/h | 17,2 km/h | 181° | 7,4 mm | – | – |
| 13:54 | 7,1 °C | 89 % | 981,0 hPa | 10,8 km/h | 19,0 km/h | 253° | 7,4 mm | – | – |
| 13:49 | 7,1 °C | 88 % | 981,0 hPa | 9,4 km/h | 19,3 km/h | 244° | 7,1 mm | – | – |
| 13:44 | 7,1 °C | 88 % | 982,1 hPa | 10,9 km/h | 19,0 km/h | 253° | 7,1 mm | – | – |
| 13:39 | 7,0 °C | 88 % | 982,1 hPa | 9,8 km/h | 20,1 km/h | 216° | 7,1 mm | – | – |
| 13:34 | 7,0 °C | 88 % | 982,1 hPa | 9,0 km/h | 17,9 km/h | 231° | 7,1 mm | – | – |
| 13:29 | 7,0 °C | 88 % | 982,1 hPa | 10,0 km/h | 21,1 km/h | 260° | 7,1 mm | – | – |
| 13:24 | 6,9 °C | 89 % | 982,1 hPa | 9,9 km/h | 17,2 km/h | 225° | 7,1 mm | – | – |
| 13:19 | 6,9 °C | 88 % | 982,1 hPa | 12,1 km/h | 22,2 km/h | 242° | 7,1 mm | – | – |
| 13:14 | 6,9 °C | 89 % | 982,1 hPa | 13,4 km/h | 23,3 km/h | 261° | 7,1 mm | – | – |
| 13:09 | 6,9 °C | 89 % | 982,1 hPa | 11,1 km/h | 25,9 km/h | 236° | 7,1 mm | – | – |
| 13:04 | 6,9 °C | 89 % | 982,1 hPa | 11,5 km/h | 24,5 km/h | 243° | 6,6 mm | – | – |
| 12:59 | 7,0 °C | 88 % | 983,1 hPa | 10,7 km/h | 19,8 km/h | 217° | 6,6 mm | – | – |
| 12:54 | 7,0 °C | 88 % | 983,1 hPa | 11,1 km/h | 25,1 km/h | 261° | 6,6 mm | – | – |
| 12:49 | 7,0 °C | 87 % | 983,1 hPa | 12,8 km/h | 25,9 km/h | 236° | 6,6 mm | – | – |
| 12:44 | 6,9 °C | 87 % | 983,1 hPa | 9,4 km/h | 17,2 km/h | 228° | 6,6 mm | – | – |
| 12:39 | 6,9 °C | 87 % | 983,1 hPa | 11,6 km/h | 19,3 km/h | 230° | 6,4 mm | – | – |
| 12:34 | 6,9 °C | 88 % | 983,1 hPa | 9,1 km/h | 20,8 km/h | 235° | 6,4 mm | – | – |
| 12:29 | 6,9 °C | 87 % | 984,1 hPa | 12,7 km/h | 25,9 km/h | 249° | 6,4 mm | – | – |
| 12:24 | 6,9 °C | 87 % | 984,1 hPa | 11,4 km/h | 25,9 km/h | 237° | 6,4 mm | – | – |
| 12:19 | 7,0 °C | 87 % | 984,1 hPa | 10,7 km/h | 25,4 km/h | 244° | 6,4 mm | – | – |
| 12:14 | 7,0 °C | 87 % | 984,1 hPa | 9,2 km/h | 18,7 km/h | 219° | 5,8 mm | – | – |
| 12:09 | 6,9 °C | 86 % | 984,1 hPa | 13,9 km/h | 27,7 km/h | 255° | 5,8 mm | – | – |
| 12:04 | 6,9 °C | 87 % | 984,1 hPa | 10,9 km/h | 21,9 km/h | 248° | 5,8 mm | – | – |
| 11:59 | 6,9 °C | 87 % | 984,1 hPa | 8,6 km/h | 19,3 km/h | 214° | 5,8 mm | – | – |
| 11:54 | 6,9 °C | 87 % | 984,1 hPa | 9,5 km/h | 17,9 km/h | 239° | 5,8 mm | – | – |
| 11:49 | 6,9 °C | 87 % | 984,1 hPa | 13,1 km/h | 23,3 km/h | 272° | 5,8 mm | – | – |
| 11:44 | 7,0 °C | 86 % | 985,1 hPa | 13,7 km/h | 25,9 km/h | 253° | 5,8 mm | – | – |
| 11:39 | 7,0 °C | 85 % | 985,1 hPa | 11,6 km/h | 21,1 km/h | 231° | 5,6 mm | – | – |
| 11:34 | 7,0 °C | 86 % | 985,1 hPa | 11,6 km/h | 23,3 km/h | 199° | 5,6 mm | – | – |
| 11:29 | 7,0 °C | 85 % | 985,1 hPa | 11,0 km/h | 20,4 km/h | 242° | 5,6 mm | – | – |
| 11:24 | 7,0 °C | 85 % | 985,1 hPa | 10,3 km/h | 21,1 km/h | 243° | 5,6 mm | – | – |
| 11:19 | 6,9 °C | 85 % | 985,1 hPa | 11,4 km/h | 26,6 km/h | 249° | 5,6 mm | – | – |
| 11:14 | 6,9 °C | 85 % | 985,8 hPa | 11,3 km/h | 25,1 km/h | 255° | 5,6 mm | – | – |
| 11:09 | 7,0 °C | 85 % | 985,8 hPa | 11,4 km/h | 21,9 km/h | 242° | 5,1 mm | – | – |
| 11:04 | 7,0 °C | 85 % | 985,8 hPa | 9,4 km/h | 21,6 km/h | 229° | 5,1 mm | – | – |
| 10:59 | 7,0 °C | 84 % | 985,8 hPa | 10,1 km/h | 26,9 km/h | 219° | 5,1 mm | – | – |
| 10:54 | 7,0 °C | 83 % | 985,8 hPa | 11,1 km/h | 23,7 km/h | 226° | 5,1 mm | – | – |
| 10:49 | 6,9 °C | 83 % | 985,8 hPa | 14,3 km/h | 23,0 km/h | 245° | 5,1 mm | – | – |
| 10:44 | 6,8 °C | 84 % | 986,8 hPa | 12,5 km/h | 24,5 km/h | 242° | 5,1 mm | – | – |
| 10:39 | 6,7 °C | 84 % | 986,8 hPa | 12,3 km/h | 25,9 km/h | 227° | 5,1 mm | – | – |
| 10:34 | 6,6 °C | 85 % | 986,8 hPa | 11,3 km/h | 17,2 km/h | 245° | 5,1 mm | – | – |
| 10:29 | 6,5 °C | 86 % | 986,8 hPa | 10,6 km/h | 20,8 km/h | 240° | 5,1 mm | – | – |
| 10:24 | 6,4 °C | 86 % | 986,8 hPa | 10,8 km/h | 20,1 km/h | 228° | 5,1 mm | – | – |
| 10:19 | 6,4 °C | 87 % | 986,8 hPa | 11,8 km/h | 20,4 km/h | 207° | 5,1 mm | – | – |
| 10:14 | 6,3 °C | 88 % | 987,8 hPa | 10,9 km/h | 23,0 km/h | 246° | 5,1 mm | – | – |
| 10:09 | 6,3 °C | 88 % | 987,8 hPa | 9,8 km/h | 19,0 km/h | 230° | 5,1 mm | – | – |
| 10:04 | 6,3 °C | 88 % | 987,8 hPa | 11,6 km/h | 19,3 km/h | 246° | 5,1 mm | – | – |
| 09:59 | 6,3 °C | 88 % | 987,8 hPa | 10,4 km/h | 19,3 km/h | 256° | 5,1 mm | – | – |
| 09:54 | 6,2 °C | 88 % | 987,8 hPa | 11,7 km/h | 18,7 km/h | 253° | 4,6 mm | – | – |
| 09:49 | 6,0 °C | 88 % | 987,8 hPa | 11,4 km/h | 24,5 km/h | 244° | 4,6 mm | – | – |
| 09:44 | 6,0 °C | 89 % | 988,8 hPa | 9,4 km/h | 18,3 km/h | 234° | 4,6 mm | – | – |
| 09:39 | 5,9 °C | 89 % | 988,8 hPa | 9,7 km/h | 18,3 km/h | 242° | 4,6 mm | – | – |
| 09:34 | 5,9 °C | 90 % | 988,8 hPa | 8,8 km/h | 17,5 km/h | 227° | 4,6 mm | – | – |
| 09:29 | 5,9 °C | 90 % | 988,8 hPa | 9,4 km/h | 17,2 km/h | 247° | 4,6 mm | – | – |
| 09:24 | 5,8 °C | 90 % | 988,8 hPa | 9,5 km/h | 19,0 km/h | 253° | 4,6 mm | – | – |
| 09:19 | 5,8 °C | 90 % | 988,8 hPa | 8,5 km/h | 15,0 km/h | 251° | 4,6 mm | – | – |
| 09:14 | 5,8 °C | 89 % | 989,8 hPa | 10,9 km/h | 23,7 km/h | 238° | 4,6 mm | – | – |
| 09:09 | 5,7 °C | 90 % | 989,8 hPa | 10,9 km/h | 19,3 km/h | 228° | 4,6 mm | – | – |
| 09:04 | 5,6 °C | 90 % | 989,8 hPa | 9,2 km/h | 19,3 km/h | 221° | 4,6 mm | – | – |
| 08:59 | 5,6 °C | 90 % | 989,8 hPa | 11,4 km/h | 21,1 km/h | 254° | 4,6 mm | – | – |
| 08:54 | 5,6 °C | 91 % | 989,8 hPa | 10,9 km/h | 21,6 km/h | 227° | 4,6 mm | – | – |
| 08:49 | 5,6 °C | 91 % | 989,8 hPa | 7,7 km/h | 26,2 km/h | 246° | 4,3 mm | – | – |
| 08:44 | 5,5 °C | 91 % | 990,9 hPa | 10,0 km/h | 17,9 km/h | 254° | 4,3 mm | – | – |
| 08:39 | 5,5 °C | 91 % | 990,9 hPa | 9,8 km/h | 18,3 km/h | 241° | 4,3 mm | – | – |
| 08:34 | 5,5 °C | 91 % | 990,9 hPa | 9,8 km/h | 20,8 km/h | 230° | 4,3 mm | – | – |
| 08:29 | 5,4 °C | 91 % | 990,9 hPa | 10,0 km/h | 19,0 km/h | 245° | 4,3 mm | – | – |
| 08:24 | 5,4 °C | 91 % | 990,9 hPa | 8,5 km/h | 17,9 km/h | 247° | 4,3 mm | – | – |
| 08:19 | 5,3 °C | 91 % | 990,9 hPa | 7,4 km/h | 17,9 km/h | 227° | 4,3 mm | – | – |
| 08:14 | 5,3 °C | 91 % | 990,9 hPa | 8,7 km/h | 16,4 km/h | 241° | 4,3 mm | – | – |
| 08:09 | 5,2 °C | 91 % | 990,9 hPa | 6,9 km/h | 18,7 km/h | 235° | 4,3 mm | – | – |
| 08:04 | 5,2 °C | 91 % | 990,9 hPa | 7,2 km/h | 18,3 km/h | 242° | 4,3 mm | – | – |
| 07:59 | 5,2 °C | 92 % | 991,9 hPa | 8,7 km/h | 16,4 km/h | 241° | 4,3 mm | – | – |
| 07:54 | 5,2 °C | 91 % | 991,9 hPa | 7,7 km/h | 17,5 km/h | 266° | 4,3 mm | – | – |
| 07:49 | 5,1 °C | 92 % | 991,9 hPa | 9,0 km/h | 19,3 km/h | 243° | 4,3 mm | – | – |
| 07:44 | 5,1 °C | 92 % | 991,9 hPa | 9,8 km/h | 17,2 km/h | 249° | 4,3 mm | – | – |
| 07:39 | 5,1 °C | 92 % | 991,9 hPa | 6,6 km/h | 19,0 km/h | 234° | 4,3 mm | – | – |
| 07:34 | 5,1 °C | 92 % | 991,9 hPa | 7,0 km/h | 12,9 km/h | 189° | 3,8 mm | – | – |
| 07:29 | 5,1 °C | 91 % | 991,9 hPa | 5,7 km/h | 12,6 km/h | 242° | 3,8 mm | – | – |
| 07:24 | 5,1 °C | 92 % | 991,9 hPa | 7,6 km/h | 16,4 km/h | 243° | 3,8 mm | – | – |
| 07:19 | 5,1 °C | 92 % | 991,9 hPa | 5,7 km/h | 14,3 km/h | 238° | 3,8 mm | – | – |
| 07:14 | 5,1 °C | 91 % | 991,9 hPa | 7,4 km/h | 18,7 km/h | 235° | 3,8 mm | – | – |
| 07:09 | 5,1 °C | 92 % | 991,9 hPa | 7,9 km/h | 20,1 km/h | 248° | 3,6 mm | – | – |
| 07:04 | 5,1 °C | 91 % | 991,9 hPa | 8,5 km/h | 20,1 km/h | 254° | 3,6 mm | – | – |
| 06:59 | 5,1 °C | 91 % | 991,9 hPa | 11,9 km/h | 20,1 km/h | 132° | 3,6 mm | – | – |
| 06:54 | 5,1 °C | 91 % | 991,9 hPa | 9,0 km/h | 16,4 km/h | 268° | 3,6 mm | – | – |
| 06:49 | 5,1 °C | 91 % | 991,9 hPa | 7,5 km/h | 15,0 km/h | 240° | 3,6 mm | – | – |
| 06:44 | 5,1 °C | 91 % | 991,9 hPa | 6,6 km/h | 12,2 km/h | 231° | 3,6 mm | – | – |
| 06:39 | 5,1 °C | 91 % | 991,9 hPa | 9,9 km/h | 16,4 km/h | 243° | 3,6 mm | – | – |
| 06:34 | 5,0 °C | 91 % | 991,9 hPa | 8,6 km/h | 17,2 km/h | 278° | 3,6 mm | – | – |
| 06:29 | 5,0 °C | 91 % | 991,9 hPa | 9,4 km/h | 15,8 km/h | 294° | 3,6 mm | – | – |
| 06:24 | 5,0 °C | 91 % | 991,9 hPa | 9,5 km/h | 19,3 km/h | 145° | 3,1 mm | – | – |
| 06:19 | 5,0 °C | 91 % | 991,9 hPa | 7,2 km/h | 25,1 km/h | 238° | 3,1 mm | – | – |
| 06:14 | 5,0 °C | 91 % | 991,9 hPa | 8,0 km/h | 16,4 km/h | 231° | 3,1 mm | – | – |
| 06:09 | 5,0 °C | 91 % | 991,9 hPa | 9,5 km/h | 16,4 km/h | 239° | 3,1 mm | – | – |
| 06:04 | 5,1 °C | 90 % | 991,9 hPa | 9,3 km/h | 19,3 km/h | 233° | 3,1 mm | – | – |
| 05:59 | 5,1 °C | 90 % | 992,9 hPa | 10,2 km/h | 16,4 km/h | 248° | 3,1 mm | – | – |
| 05:54 | 5,2 °C | 89 % | 992,9 hPa | 8,8 km/h | 19,8 km/h | 258° | 3,1 mm | – | – |
| 05:49 | 5,2 °C | 89 % | 992,9 hPa | 8,9 km/h | 16,4 km/h | 242° | 3,1 mm | – | – |
| 05:44 | 5,1 °C | 89 % | 992,9 hPa | 8,7 km/h | 18,7 km/h | 218° | 3,1 mm | – | – |
| 05:39 | 5,1 °C | 89 % | 992,9 hPa | 9,1 km/h | 17,9 km/h | 251° | 3,1 mm | – | – |
| 05:34 | 5,0 °C | 89 % | 992,9 hPa | 7,4 km/h | 15,0 km/h | 263° | 3,1 mm | – | – |
| 05:29 | 5,0 °C | 89 % | 992,9 hPa | 8,0 km/h | 18,3 km/h | 265° | 3,1 mm | – | – |
| 05:24 | 4,9 °C | 90 % | 992,9 hPa | 9,1 km/h | 20,1 km/h | 274° | 3,1 mm | – | – |
| 05:19 | 4,9 °C | 90 % | 992,9 hPa | 8,5 km/h | 20,1 km/h | 255° | 3,1 mm | – | – |
| 05:14 | 4,9 °C | 90 % | 992,9 hPa | 9,2 km/h | 18,7 km/h | 247° | 3,1 mm | – | – |
| 05:09 | 4,9 °C | 90 % | 992,9 hPa | 10,6 km/h | 20,1 km/h | 232° | 3,1 mm | – | – |
| 05:04 | 4,9 °C | 90 % | 992,9 hPa | 7,1 km/h | 16,4 km/h | 226° | 3,1 mm | – | – |
| 04:59 | 4,8 °C | 90 % | 992,9 hPa | 10,9 km/h | 19,8 km/h | 267° | 3,1 mm | – | – |
| 04:54 | 4,8 °C | 90 % | 992,9 hPa | 8,5 km/h | 19,3 km/h | 224° | 3,1 mm | – | – |
| 04:49 | 4,7 °C | 90 % | 992,9 hPa | 9,3 km/h | 24,8 km/h | 266° | 3,1 mm | – | – |
| 04:44 | 4,7 °C | 91 % | 992,9 hPa | 7,8 km/h | 17,9 km/h | 245° | 3,1 mm | – | – |
| 04:39 | 4,7 °C | 91 % | 992,9 hPa | 9,5 km/h | 17,2 km/h | 252° | 3,1 mm | – | – |
| 04:34 | 4,7 °C | 91 % | 992,9 hPa | 9,2 km/h | 16,4 km/h | 244° | 3,1 mm | – | – |
| 04:29 | 4,8 °C | 91 % | 993,9 hPa | 8,3 km/h | 18,3 km/h | 215° | 3,1 mm | – | – |
| 04:24 | 4,8 °C | 90 % | 993,9 hPa | 9,5 km/h | 17,2 km/h | 262° | 3,1 mm | – | – |
| 04:19 | 4,8 °C | 90 % | 993,9 hPa | 9,5 km/h | 15,8 km/h | 33° | 3,1 mm | – | – |
| 04:14 | 4,8 °C | 90 % | 993,9 hPa | 10,2 km/h | 17,2 km/h | 251° | 2,8 mm | – | – |
| 04:09 | 4,9 °C | 90 % | 993,9 hPa | 7,1 km/h | 17,2 km/h | 244° | 2,8 mm | – | – |
| 04:04 | 5,0 °C | 89 % | 993,9 hPa | 8,4 km/h | 16,4 km/h | 273° | 2,8 mm | – | – |
| 03:59 | 5,0 °C | 89 % | 993,9 hPa | 9,7 km/h | 20,1 km/h | 268° | 2,8 mm | – | – |
| 03:54 | 5,1 °C | 89 % | 993,9 hPa | 10,0 km/h | 18,7 km/h | 206° | 2,8 mm | – | – |
| 03:49 | 5,2 °C | 88 % | 993,9 hPa | 8,8 km/h | 19,3 km/h | 233° | 2,8 mm | – | – |
| 03:44 | 5,3 °C | 87 % | 993,9 hPa | 10,2 km/h | 18,7 km/h | 224° | 2,3 mm | – | – |
| 03:39 | 5,3 °C | 86 % | 993,9 hPa | 8,0 km/h | 18,3 km/h | 184° | 2,3 mm | – | – |
| 03:34 | 5,3 °C | 85 % | 993,9 hPa | 9,4 km/h | 25,1 km/h | 240° | 2,3 mm | – | – |
| 03:29 | 5,3 °C | 85 % | 994,9 hPa | 9,8 km/h | 23,3 km/h | 238° | 2,3 mm | – | – |
| 03:24 | 5,3 °C | 85 % | 994,9 hPa | 9,3 km/h | 17,9 km/h | 271° | 2,3 mm | – | – |
| 03:19 | 5,2 °C | 85 % | 994,9 hPa | 9,0 km/h | 17,2 km/h | 247° | 2,3 mm | – | – |
| 03:14 | 5,2 °C | 85 % | 994,9 hPa | 9,8 km/h | 15,8 km/h | 249° | 2,3 mm | – | – |
| 03:09 | 5,2 °C | 85 % | 994,9 hPa | 7,3 km/h | 17,2 km/h | 263° | 2,3 mm | – | – |
| 03:04 | 5,1 °C | 85 % | 994,9 hPa | 8,9 km/h | 12,6 km/h | 253° | 2,3 mm | – | – |
| 02:59 | 5,2 °C | 85 % | 994,9 hPa | 6,2 km/h | 11,4 km/h | 259° | 2,3 mm | – | – |
| 02:54 | 5,1 °C | 86 % | 994,9 hPa | 7,7 km/h | 15,8 km/h | 253° | 2,3 mm | – | – |
| 02:49 | 5,1 °C | 85 % | 994,9 hPa | 8,9 km/h | 20,1 km/h | 227° | 2,3 mm | – | – |
| 02:44 | 5,1 °C | 86 % | 994,9 hPa | 8,0 km/h | 18,3 km/h | 236° | 2,3 mm | – | – |
| 02:39 | 5,0 °C | 86 % | 994,9 hPa | 9,3 km/h | 25,1 km/h | 203° | 2,3 mm | – | – |
| 02:34 | 5,0 °C | 86 % | 994,9 hPa | 9,1 km/h | 16,4 km/h | 232° | 2,3 mm | – | – |
| 02:29 | 5,0 °C | 86 % | 994,9 hPa | 10,4 km/h | 18,3 km/h | 255° | 1,8 mm | – | – |
| 02:24 | 5,0 °C | 86 % | 994,9 hPa | 9,2 km/h | 16,4 km/h | 234° | 1,8 mm | – | – |
| 02:19 | 4,9 °C | 86 % | 994,9 hPa | 8,7 km/h | 17,9 km/h | 233° | 1,8 mm | – | – |
| 02:14 | 4,9 °C | 87 % | 994,9 hPa | 9,1 km/h | 21,9 km/h | 257° | 1,8 mm | – | – |
| 02:09 | 4,8 °C | 87 % | 994,9 hPa | 9,3 km/h | 18,3 km/h | 242° | 1,8 mm | – | – |
| 02:04 | 4,7 °C | 87 % | 994,9 hPa | 11,2 km/h | 21,1 km/h | 248° | 1,8 mm | – | – |
| 01:59 | 4,7 °C | 88 % | 995,9 hPa | 9,7 km/h | 21,1 km/h | 231° | 1,8 mm | – | – |
| 01:54 | 4,7 °C | 88 % | 995,9 hPa | 9,0 km/h | 20,1 km/h | 210° | 1,8 mm | – | – |
| 01:49 | 4,7 °C | 89 % | 995,9 hPa | 7,2 km/h | 16,4 km/h | 235° | 1,8 mm | – | – |
| 01:44 | 4,7 °C | 88 % | 995,9 hPa | 9,3 km/h | 16,4 km/h | 240° | 1,8 mm | – | – |
| 01:39 | 4,7 °C | 88 % | 995,9 hPa | 10,1 km/h | 19,0 km/h | 212° | 1,8 mm | – | – |
| 01:34 | 4,7 °C | 89 % | 995,9 hPa | 7,7 km/h | 15,0 km/h | 254° | 1,8 mm | – | – |
| 01:29 | 4,6 °C | 88 % | 995,9 hPa | 9,5 km/h | 19,0 km/h | 216° | 1,8 mm | – | – |
| 01:24 | 4,6 °C | 89 % | 995,9 hPa | 9,4 km/h | 16,4 km/h | 235° | 1,8 mm | – | – |
| 01:19 | 4,6 °C | 89 % | 995,9 hPa | 8,3 km/h | 17,2 km/h | 241° | 1,5 mm | – | – |
| 01:14 | 4,6 °C | 89 % | 997,0 hPa | 8,5 km/h | 19,0 km/h | 239° | 1,5 mm | – | – |
| 01:09 | 4,6 °C | 89 % | 997,0 hPa | 7,0 km/h | 12,6 km/h | 217° | 1,5 mm | – | – |
| 01:04 | 4,6 °C | 88 % | 997,0 hPa | 8,8 km/h | 16,4 km/h | 229° | 1,0 mm | – | – |
| 00:59 | 4,6 °C | 88 % | 997,0 hPa | 8,4 km/h | 16,4 km/h | 185° | 1,0 mm | – | – |
| 00:54 | 4,6 °C | 88 % | 997,0 hPa | 8,6 km/h | 15,8 km/h | 256° | 0,8 mm | – | – |
| 00:49 | 4,6 °C | 88 % | 997,0 hPa | 7,9 km/h | 18,3 km/h | 226° | 0,8 mm | – | – |
| 00:44 | 4,6 °C | 87 % | 997,0 hPa | 8,9 km/h | 20,1 km/h | 240° | 0,8 mm | – | – |
| 00:39 | 4,6 °C | 88 % | 997,0 hPa | 7,3 km/h | 15,8 km/h | 277° | 0,3 mm | – | – |
| 00:34 | 4,6 °C | 87 % | 997,0 hPa | 8,4 km/h | 17,2 km/h | 226° | 0,3 mm | – | – |
| 00:29 | 4,6 °C | 87 % | 997,0 hPa | 8,0 km/h | 16,4 km/h | 248° | 0,3 mm | – | – |
| 00:24 | 4,6 °C | 87 % | 997,0 hPa | 8,5 km/h | 20,1 km/h | 267° | 0,3 mm | – | – |
| 00:19 | 4,6 °C | 86 % | 997,0 hPa | 8,0 km/h | 16,9 km/h | 240° | 0,3 mm | – | – |
| 00:14 | 4,6 °C | 86 % | 998,0 hPa | 8,7 km/h | 16,4 km/h | 240° | 0,3 mm | – | – |
| 00:09 | 4,6 °C | 86 % | 998,0 hPa | 8,7 km/h | 16,4 km/h | 250° | 0,3 mm | – | – |
| 00:04 | 4,6 °C | 86 % | 998,0 hPa | 8,3 km/h | 17,9 km/h | 252° | 0,0 mm | – | – |